sensor_id;sensor_type;location;lat;lon;timestamp;P1;durP1;ratioP1;P2;durP2;ratioP2
23702;SDS011;12030;50.376;8.762;2023-12-29T00:00:30;3.13;;;2.50;;
23702;SDS011;12030;50.376;8.762;2023-12-29T00:02:56;3.53;;;3.03;;
23702;SDS011;12030;50.376;8.762;2023-12-29T00:05:21;4.73;;;3.83;;
23702;SDS011;12030;50.376;8.762;2023-12-29T00:07:47;4.30;;;3.50;;
23702;SDS011;12030;50.376;8.762;2023-12-29T00:10:12;4.77;;;3.70;;
23702;SDS011;12030;50.376;8.762;2023-12-29T00:12:38;4.97;;;3.90;;
23702;SDS011;12030;50.376;8.762;2023-12-29T00:15:04;2.80;;;2.50;;
23702;SDS011;12030;50.376;8.762;2023-12-29T00:17:30;3.80;;;3.00;;
23702;SDS011;12030;50.376;8.762;2023-12-29T00:19:57;4.13;;;3.27;;
23702;SDS011;12030;50.376;8.762;2023-12-29T00:22:23;3.43;;;2.73;;
23702;SDS011;12030;50.376;8.762;2023-12-29T00:24:50;2.77;;;2.47;;
23702;SDS011;12030;50.376;8.762;2023-12-29T00:27:15;3.13;;;2.80;;
23702;SDS011;12030;50.376;8.762;2023-12-29T00:29:41;2.73;;;2.50;;
23702;SDS011;12030;50.376;8.762;2023-12-29T00:32:07;4.37;;;2.90;;
23702;SDS011;12030;50.376;8.762;2023-12-29T00:34:33;3.17;;;2.53;;
23702;SDS011;12030;50.376;8.762;2023-12-29T00:36:59;2.13;;;1.93;;
23702;SDS011;12030;50.376;8.762;2023-12-29T00:39:24;3.13;;;1.90;;
23702;SDS011;12030;50.376;8.762;2023-12-29T00:41:55;2.37;;;2.17;;
23702;SDS011;12030;50.376;8.762;2023-12-29T00:44:21;2.90;;;2.30;;
23702;SDS011;12030;50.376;8.762;2023-12-29T00:46:47;2.87;;;2.20;;
23702;SDS011;12030;50.376;8.762;2023-12-29T00:49:13;2.40;;;2.20;;
23702;SDS011;12030;50.376;8.762;2023-12-29T00:51:39;2.73;;;2.50;;
23702;SDS011;12030;50.376;8.762;2023-12-29T00:54:06;2.37;;;2.10;;
23702;SDS011;12030;50.376;8.762;2023-12-29T00:56:32;2.30;;;2.10;;
23702;SDS011;12030;50.376;8.762;2023-12-29T00:58:57;2.30;;;2.10;;
23702;SDS011;12030;50.376;8.762;2023-12-29T01:01:22;2.40;;;2.20;;
23702;SDS011;12030;50.376;8.762;2023-12-29T01:03:48;2.60;;;2.23;;
23702;SDS011;12030;50.376;8.762;2023-12-29T01:06:14;2.33;;;2.10;;
23702;SDS011;12030;50.376;8.762;2023-12-29T01:08:39;2.40;;;2.20;;
23702;SDS011;12030;50.376;8.762;2023-12-29T01:11:05;2.70;;;2.50;;
23702;SDS011;12030;50.376;8.762;2023-12-29T01:13:30;2.63;;;2.43;;
23702;SDS011;12030;50.376;8.762;2023-12-29T01:15:56;2.50;;;2.30;;
23702;SDS011;12030;50.376;8.762;2023-12-29T01:18:22;2.13;;;1.93;;
23702;SDS011;12030;50.376;8.762;2023-12-29T01:20:47;2.20;;;2.00;;
23702;SDS011;12030;50.376;8.762;2023-12-29T01:23:13;3.13;;;2.40;;
23702;SDS011;12030;50.376;8.762;2023-12-29T01:25:38;4.43;;;2.70;;
23702;SDS011;12030;50.376;8.762;2023-12-29T01:28:04;2.20;;;2.00;;
23702;SDS011;12030;50.376;8.762;2023-12-29T01:30:29;2.40;;;2.10;;
23702;SDS011;12030;50.376;8.762;2023-12-29T01:32:55;4.10;;;1.90;;
23702;SDS011;12030;50.376;8.762;2023-12-29T01:35:21;1.93;;;1.80;;
23702;SDS011;12030;50.376;8.762;2023-12-29T01:37:46;2.40;;;1.80;;
23702;SDS011;12030;50.376;8.762;2023-12-29T01:40:12;3.93;;;1.87;;
23702;SDS011;12030;50.376;8.762;2023-12-29T01:42:37;1.77;;;1.50;;
23702;SDS011;12030;50.376;8.762;2023-12-29T01:45:03;1.90;;;1.70;;
23702;SDS011;12030;50.376;8.762;2023-12-29T01:47:30;3.07;;;2.03;;
23702;SDS011;12030;50.376;8.762;2023-12-29T01:49:56;2.57;;;1.43;;
23702;SDS011;12030;50.376;8.762;2023-12-29T01:52:22;2.10;;;1.70;;
23702;SDS011;12030;50.376;8.762;2023-12-29T01:54:48;3.47;;;1.70;;
23702;SDS011;12030;50.376;8.762;2023-12-29T01:57:15;1.97;;;1.80;;
23702;SDS011;12030;50.376;8.762;2023-12-29T01:59:41;2.73;;;2.10;;
23702;SDS011;12030;50.376;8.762;2023-12-29T02:02:07;2.27;;;1.60;;
23702;SDS011;12030;50.376;8.762;2023-12-29T02:04:33;1.90;;;1.70;;
23702;SDS011;12030;50.376;8.762;2023-12-29T02:06:58;1.60;;;1.37;;
23702;SDS011;12030;50.376;8.762;2023-12-29T02:09:24;2.43;;;1.70;;
23702;SDS011;12030;50.376;8.762;2023-12-29T02:11:50;2.40;;;1.90;;
23702;SDS011;12030;50.376;8.762;2023-12-29T02:14:15;1.60;;;1.50;;
23702;SDS011;12030;50.376;8.762;2023-12-29T02:16:45;2.27;;;1.40;;
23702;SDS011;12030;50.376;8.762;2023-12-29T02:19:25;2.03;;;1.60;;
23702;SDS011;12030;50.376;8.762;2023-12-29T02:22:05;2.53;;;1.40;;
23702;SDS011;12030;50.376;8.762;2023-12-29T02:24:33;3.10;;;1.50;;
23702;SDS011;12030;50.376;8.762;2023-12-29T02:27:11;3.23;;;1.70;;
23702;SDS011;12030;50.376;8.762;2023-12-29T02:29:44;2.53;;;1.37;;
23702;SDS011;12030;50.376;8.762;2023-12-29T02:32:17;2.10;;;1.50;;
23702;SDS011;12030;50.376;8.762;2023-12-29T02:34:43;1.70;;;1.60;;
23702;SDS011;12030;50.376;8.762;2023-12-29T02:37:11;2.13;;;1.30;;
23702;SDS011;12030;50.376;8.762;2023-12-29T02:39:37;2.60;;;1.50;;
23702;SDS011;12030;50.376;8.762;2023-12-29T02:42:03;2.20;;;1.40;;
23702;SDS011;12030;50.376;8.762;2023-12-29T02:44:29;3.83;;;1.80;;
23702;SDS011;12030;50.376;8.762;2023-12-29T02:46:55;1.73;;;1.50;;
23702;SDS011;12030;50.376;8.762;2023-12-29T02:49:20;1.83;;;1.60;;
23702;SDS011;12030;50.376;8.762;2023-12-29T02:51:46;2.03;;;1.63;;
23702;SDS011;12030;50.376;8.762;2023-12-29T02:54:13;1.63;;;1.40;;
23702;SDS011;12030;50.376;8.762;2023-12-29T02:56:38;1.47;;;1.33;;
23702;SDS011;12030;50.376;8.762;2023-12-29T02:59:03;1.63;;;1.33;;
23702;SDS011;12030;50.376;8.762;2023-12-29T03:01:29;1.60;;;1.50;;
23702;SDS011;12030;50.376;8.762;2023-12-29T03:03:55;2.53;;;1.30;;
23702;SDS011;12030;50.376;8.762;2023-12-29T03:06:21;1.60;;;1.40;;
23702;SDS011;12030;50.376;8.762;2023-12-29T03:08:46;1.70;;;1.10;;
23702;SDS011;12030;50.376;8.762;2023-12-29T03:11:12;1.60;;;1.10;;
23702;SDS011;12030;50.376;8.762;2023-12-29T03:13:37;1.50;;;1.17;;
23702;SDS011;12030;50.376;8.762;2023-12-29T03:16:03;2.37;;;1.80;;
23702;SDS011;12030;50.376;8.762;2023-12-29T03:18:29;2.80;;;1.43;;
23702;SDS011;12030;50.376;8.762;2023-12-29T03:20:54;1.40;;;1.20;;
23702;SDS011;12030;50.376;8.762;2023-12-29T03:23:20;1.77;;;1.20;;
23702;SDS011;12030;50.376;8.762;2023-12-29T03:25:45;2.07;;;1.33;;
23702;SDS011;12030;50.376;8.762;2023-12-29T03:28:11;2.50;;;1.30;;
23702;SDS011;12030;50.376;8.762;2023-12-29T03:30:36;2.03;;;1.40;;
23702;SDS011;12030;50.376;8.762;2023-12-29T03:33:02;1.77;;;1.30;;
23702;SDS011;12030;50.376;8.762;2023-12-29T03:35:28;2.07;;;1.47;;
23702;SDS011;12030;50.376;8.762;2023-12-29T03:37:53;1.80;;;1.50;;
23702;SDS011;12030;50.376;8.762;2023-12-29T03:40:19;1.97;;;1.40;;
23702;SDS011;12030;50.376;8.762;2023-12-29T03:42:44;1.70;;;1.23;;
23702;SDS011;12030;50.376;8.762;2023-12-29T03:45:10;2.70;;;1.40;;
23702;SDS011;12030;50.376;8.762;2023-12-29T03:47:35;2.07;;;1.37;;
23702;SDS011;12030;50.376;8.762;2023-12-29T03:50:01;2.17;;;1.30;;
23702;SDS011;12030;50.376;8.762;2023-12-29T03:52:26;2.07;;;1.13;;
23702;SDS011;12030;50.376;8.762;2023-12-29T03:54:52;2.17;;;1.37;;
23702;SDS011;12030;50.376;8.762;2023-12-29T03:57:17;1.93;;;1.63;;
23702;SDS011;12030;50.376;8.762;2023-12-29T03:59:43;1.97;;;1.20;;
23702;SDS011;12030;50.376;8.762;2023-12-29T04:02:08;2.13;;;1.20;;
23702;SDS011;12030;50.376;8.762;2023-12-29T04:04:37;2.30;;;1.50;;
23702;SDS011;12030;50.376;8.762;2023-12-29T04:07:03;1.30;;;1.20;;
23702;SDS011;12030;50.376;8.762;2023-12-29T04:09:29;1.80;;;1.40;;
23702;SDS011;12030;50.376;8.762;2023-12-29T04:11:55;2.23;;;1.40;;
23702;SDS011;12030;50.376;8.762;2023-12-29T04:14:20;2.03;;;1.30;;
23702;SDS011;12030;50.376;8.762;2023-12-29T04:16:46;2.33;;;1.03;;
23702;SDS011;12030;50.376;8.762;2023-12-29T04:19:11;1.90;;;1.10;;
23702;SDS011;12030;50.376;8.762;2023-12-29T04:21:37;1.40;;;1.30;;
23702;SDS011;12030;50.376;8.762;2023-12-29T04:24:02;1.67;;;1.20;;
23702;SDS011;12030;50.376;8.762;2023-12-29T04:26:28;2.00;;;1.47;;
23702;SDS011;12030;50.376;8.762;2023-12-29T04:28:53;2.47;;;1.40;;
23702;SDS011;12030;50.376;8.762;2023-12-29T04:31:19;2.47;;;1.27;;
23702;SDS011;12030;50.376;8.762;2023-12-29T04:33:44;3.17;;;1.20;;
23702;SDS011;12030;50.376;8.762;2023-12-29T04:36:10;2.33;;;1.17;;
23702;SDS011;12030;50.376;8.762;2023-12-29T04:38:36;1.80;;;1.50;;
23702;SDS011;12030;50.376;8.762;2023-12-29T04:41:02;2.37;;;1.37;;
23702;SDS011;12030;50.376;8.762;2023-12-29T04:43:27;3.33;;;1.30;;
23702;SDS011;12030;50.376;8.762;2023-12-29T04:45:53;1.87;;;1.20;;
23702;SDS011;12030;50.376;8.762;2023-12-29T04:48:18;2.37;;;1.20;;
23702;SDS011;12030;50.376;8.762;2023-12-29T04:50:44;1.77;;;1.20;;
23702;SDS011;12030;50.376;8.762;2023-12-29T04:53:09;2.70;;;1.57;;
23702;SDS011;12030;50.376;8.762;2023-12-29T04:55:35;1.77;;;1.30;;
23702;SDS011;12030;50.376;8.762;2023-12-29T04:58:01;3.83;;;1.37;;
23702;SDS011;12030;50.376;8.762;2023-12-29T05:00:26;1.97;;;1.30;;
23702;SDS011;12030;50.376;8.762;2023-12-29T05:02:52;1.27;;;1.07;;
23702;SDS011;12030;50.376;8.762;2023-12-29T05:05:17;2.30;;;1.20;;
23702;SDS011;12030;50.376;8.762;2023-12-29T05:07:43;1.53;;;1.20;;
23702;SDS011;12030;50.376;8.762;2023-12-29T05:10:08;2.40;;;1.23;;
23702;SDS011;12030;50.376;8.762;2023-12-29T05:12:34;3.33;;;1.13;;
23702;SDS011;12030;50.376;8.762;2023-12-29T05:14:59;2.63;;;1.20;;
23702;SDS011;12030;50.376;8.762;2023-12-29T05:17:25;1.60;;;0.97;;
23702;SDS011;12030;50.376;8.762;2023-12-29T05:19:50;2.93;;;1.53;;
23702;SDS011;12030;50.376;8.762;2023-12-29T05:22:16;2.67;;;1.10;;
23702;SDS011;12030;50.376;8.762;2023-12-29T05:24:42;1.90;;;1.33;;
23702;SDS011;12030;50.376;8.762;2023-12-29T05:27:09;1.93;;;1.00;;
23702;SDS011;12030;50.376;8.762;2023-12-29T05:29:34;1.57;;;1.00;;
23702;SDS011;12030;50.376;8.762;2023-12-29T05:32:00;4.43;;;1.30;;
23702;SDS011;12030;50.376;8.762;2023-12-29T05:34:27;2.40;;;1.00;;
23702;SDS011;12030;50.376;8.762;2023-12-29T05:36:53;2.77;;;1.33;;
23702;SDS011;12030;50.376;8.762;2023-12-29T05:39:18;2.00;;;1.10;;
23702;SDS011;12030;50.376;8.762;2023-12-29T05:41:44;2.40;;;1.23;;
23702;SDS011;12030;50.376;8.762;2023-12-29T05:44:09;4.13;;;1.10;;
23702;SDS011;12030;50.376;8.762;2023-12-29T05:46:35;2.43;;;1.20;;
23702;SDS011;12030;50.376;8.762;2023-12-29T05:49:00;4.43;;;1.33;;
23702;SDS011;12030;50.376;8.762;2023-12-29T05:51:26;3.50;;;1.37;;
23702;SDS011;12030;50.376;8.762;2023-12-29T05:53:51;2.87;;;1.20;;
23702;SDS011;12030;50.376;8.762;2023-12-29T05:56:17;1.13;;;1.00;;
23702;SDS011;12030;50.376;8.762;2023-12-29T05:58:42;1.90;;;1.33;;
23702;SDS011;12030;50.376;8.762;2023-12-29T06:01:08;2.20;;;1.20;;
23702;SDS011;12030;50.376;8.762;2023-12-29T06:03:34;2.47;;;1.00;;
23702;SDS011;12030;50.376;8.762;2023-12-29T06:06:00;2.53;;;1.10;;
23702;SDS011;12030;50.376;8.762;2023-12-29T06:08:26;1.17;;;1.07;;
23702;SDS011;12030;50.376;8.762;2023-12-29T06:10:51;1.77;;;1.23;;
23702;SDS011;12030;50.376;8.762;2023-12-29T06:13:17;1.97;;;1.00;;
23702;SDS011;12030;50.376;8.762;2023-12-29T06:15:42;2.13;;;1.27;;
23702;SDS011;12030;50.376;8.762;2023-12-29T06:18:08;2.57;;;1.20;;
23702;SDS011;12030;50.376;8.762;2023-12-29T06:20:33;1.40;;;1.10;;
23702;SDS011;12030;50.376;8.762;2023-12-29T06:22:59;3.87;;;1.07;;
23702;SDS011;12030;50.376;8.762;2023-12-29T06:25:25;2.67;;;1.03;;
23702;SDS011;12030;50.376;8.762;2023-12-29T06:27:51;2.60;;;1.20;;
23702;SDS011;12030;50.376;8.762;2023-12-29T06:30:16;2.73;;;1.10;;
23702;SDS011;12030;50.376;8.762;2023-12-29T06:32:42;2.63;;;0.93;;
23702;SDS011;12030;50.376;8.762;2023-12-29T06:35:08;2.63;;;1.03;;
23702;SDS011;12030;50.376;8.762;2023-12-29T06:37:35;1.57;;;1.07;;
23702;SDS011;12030;50.376;8.762;2023-12-29T06:40:05;1.63;;;0.93;;
23702;SDS011;12030;50.376;8.762;2023-12-29T06:42:32;1.77;;;1.07;;
23702;SDS011;12030;50.376;8.762;2023-12-29T06:44:57;1.90;;;0.80;;
23702;SDS011;12030;50.376;8.762;2023-12-29T06:47:23;1.27;;;1.00;;
23702;SDS011;12030;50.376;8.762;2023-12-29T06:49:48;4.23;;;1.40;;
23702;SDS011;12030;50.376;8.762;2023-12-29T06:52:15;2.93;;;1.07;;
23702;SDS011;12030;50.376;8.762;2023-12-29T06:54:41;2.23;;;1.10;;
23702;SDS011;12030;50.376;8.762;2023-12-29T06:57:06;1.33;;;1.03;;
23702;SDS011;12030;50.376;8.762;2023-12-29T06:59:32;1.27;;;0.83;;
23702;SDS011;12030;50.376;8.762;2023-12-29T07:01:57;2.73;;;1.27;;
23702;SDS011;12030;50.376;8.762;2023-12-29T07:04:23;4.57;;;1.10;;
23702;SDS011;12030;50.376;8.762;2023-12-29T07:06:49;2.20;;;1.07;;
23702;SDS011;12030;50.376;8.762;2023-12-29T07:09:14;2.77;;;1.40;;
23702;SDS011;12030;50.376;8.762;2023-12-29T07:11:40;2.50;;;1.40;;
23702;SDS011;12030;50.376;8.762;2023-12-29T07:14:05;2.47;;;1.40;;
23702;SDS011;12030;50.376;8.762;2023-12-29T07:16:31;5.10;;;1.10;;
23702;SDS011;12030;50.376;8.762;2023-12-29T07:18:56;1.73;;;1.00;;
23702;SDS011;12030;50.376;8.762;2023-12-29T07:21:22;2.17;;;1.10;;
23702;SDS011;12030;50.376;8.762;2023-12-29T07:23:47;2.23;;;1.10;;
23702;SDS011;12030;50.376;8.762;2023-12-29T07:26:13;1.50;;;1.00;;
23702;SDS011;12030;50.376;8.762;2023-12-29T07:28:38;3.53;;;1.33;;
23702;SDS011;12030;50.376;8.762;2023-12-29T07:31:04;3.00;;;2.10;;
23702;SDS011;12030;50.376;8.762;2023-12-29T07:33:30;1.83;;;1.17;;
23702;SDS011;12030;50.376;8.762;2023-12-29T07:35:55;2.73;;;1.20;;
23702;SDS011;12030;50.376;8.762;2023-12-29T07:38:21;2.07;;;1.10;;
23702;SDS011;12030;50.376;8.762;2023-12-29T07:40:46;2.00;;;1.07;;
23702;SDS011;12030;50.376;8.762;2023-12-29T07:43:15;1.43;;;1.13;;
23702;SDS011;12030;50.376;8.762;2023-12-29T07:45:40;1.53;;;1.10;;
23702;SDS011;12030;50.376;8.762;2023-12-29T07:48:08;4.70;;;1.37;;
23702;SDS011;12030;50.376;8.762;2023-12-29T07:50:33;3.87;;;1.40;;
23702;SDS011;12030;50.376;8.762;2023-12-29T07:52:59;3.17;;;1.30;;
23702;SDS011;12030;50.376;8.762;2023-12-29T07:55:27;2.37;;;1.10;;
23702;SDS011;12030;50.376;8.762;2023-12-29T07:57:54;1.40;;;1.20;;
23702;SDS011;12030;50.376;8.762;2023-12-29T08:00:19;2.40;;;1.00;;
23702;SDS011;12030;50.376;8.762;2023-12-29T08:02:45;2.40;;;1.27;;
23702;SDS011;12030;50.376;8.762;2023-12-29T08:05:10;1.77;;;1.10;;
23702;SDS011;12030;50.376;8.762;2023-12-29T08:07:36;1.40;;;1.20;;
23702;SDS011;12030;50.376;8.762;2023-12-29T08:10:03;2.73;;;1.50;;
23702;SDS011;12030;50.376;8.762;2023-12-29T08:12:30;2.30;;;1.20;;
23702;SDS011;12030;50.376;8.762;2023-12-29T08:14:55;2.03;;;1.30;;
23702;SDS011;12030;50.376;8.762;2023-12-29T08:17:21;2.13;;;1.27;;
23702;SDS011;12030;50.376;8.762;2023-12-29T08:19:47;2.90;;;1.27;;
23702;SDS011;12030;50.376;8.762;2023-12-29T08:22:12;3.17;;;1.50;;
23702;SDS011;12030;50.376;8.762;2023-12-29T08:24:40;2.63;;;1.67;;
23702;SDS011;12030;50.376;8.762;2023-12-29T08:27:08;1.87;;;1.30;;
23702;SDS011;12030;50.376;8.762;2023-12-29T08:29:34;2.03;;;1.30;;
23702;SDS011;12030;50.376;8.762;2023-12-29T08:31:59;1.60;;;1.10;;
23702;SDS011;12030;50.376;8.762;2023-12-29T08:34:26;2.90;;;1.40;;
23702;SDS011;12030;50.376;8.762;2023-12-29T08:36:52;1.83;;;1.10;;
23702;SDS011;12030;50.376;8.762;2023-12-29T08:39:18;2.20;;;1.10;;
23702;SDS011;12030;50.376;8.762;2023-12-29T08:41:44;2.00;;;1.37;;
23702;SDS011;12030;50.376;8.762;2023-12-29T08:44:09;2.90;;;1.40;;
23702;SDS011;12030;50.376;8.762;2023-12-29T08:46:35;1.80;;;1.17;;
23702;SDS011;12030;50.376;8.762;2023-12-29T08:49:00;3.87;;;1.30;;
23702;SDS011;12030;50.376;8.762;2023-12-29T08:51:26;2.27;;;1.03;;
23702;SDS011;12030;50.376;8.762;2023-12-29T08:53:52;3.90;;;1.57;;
23702;SDS011;12030;50.376;8.762;2023-12-29T08:56:17;2.80;;;1.30;;
23702;SDS011;12030;50.376;8.762;2023-12-29T08:58:43;1.60;;;1.10;;
23702;SDS011;12030;50.376;8.762;2023-12-29T09:01:08;2.33;;;1.10;;
23702;SDS011;12030;50.376;8.762;2023-12-29T09:03:34;1.70;;;1.10;;
23702;SDS011;12030;50.376;8.762;2023-12-29T09:05:59;3.30;;;1.50;;
23702;SDS011;12030;50.376;8.762;2023-12-29T09:08:26;2.77;;;1.07;;
23702;SDS011;12030;50.376;8.762;2023-12-29T09:10:52;4.70;;;1.50;;
23702;SDS011;12030;50.376;8.762;2023-12-29T09:13:17;2.57;;;1.40;;
23702;SDS011;12030;50.376;8.762;2023-12-29T09:15:47;1.47;;;1.10;;
23702;SDS011;12030;50.376;8.762;2023-12-29T09:18:13;2.27;;;0.90;;
23702;SDS011;12030;50.376;8.762;2023-12-29T09:20:38;3.53;;;1.30;;
23702;SDS011;12030;50.376;8.762;2023-12-29T09:23:04;3.23;;;1.10;;
23702;SDS011;12030;50.376;8.762;2023-12-29T09:25:30;2.07;;;1.30;;
23702;SDS011;12030;50.376;8.762;2023-12-29T09:27:55;1.27;;;0.83;;
23702;SDS011;12030;50.376;8.762;2023-12-29T09:30:21;3.17;;;1.13;;
23702;SDS011;12030;50.376;8.762;2023-12-29T09:32:47;2.63;;;0.97;;
23702;SDS011;12030;50.376;8.762;2023-12-29T09:35:12;2.50;;;0.90;;
23702;SDS011;12030;50.376;8.762;2023-12-29T09:37:38;2.83;;;1.57;;
23702;SDS011;12030;50.376;8.762;2023-12-29T09:40:03;2.40;;;1.07;;
23702;SDS011;12030;50.376;8.762;2023-12-29T09:42:29;2.50;;;1.13;;
23702;SDS011;12030;50.376;8.762;2023-12-29T09:44:56;2.27;;;1.10;;
23702;SDS011;12030;50.376;8.762;2023-12-29T09:47:23;2.47;;;0.93;;
23702;SDS011;12030;50.376;8.762;2023-12-29T09:49:51;4.57;;;1.37;;
23702;SDS011;12030;50.376;8.762;2023-12-29T09:52:18;2.53;;;0.97;;
23702;SDS011;12030;50.376;8.762;2023-12-29T09:54:46;2.70;;;0.97;;
23702;SDS011;12030;50.376;8.762;2023-12-29T09:57:13;3.73;;;1.20;;
23702;SDS011;12030;50.376;8.762;2023-12-29T09:59:39;2.47;;;0.70;;
23702;SDS011;12030;50.376;8.762;2023-12-29T10:02:07;3.73;;;1.00;;
23702;SDS011;12030;50.376;8.762;2023-12-29T10:04:39;5.23;;;1.10;;
23702;SDS011;12030;50.376;8.762;2023-12-29T10:07:04;2.47;;;0.90;;
23702;SDS011;12030;50.376;8.762;2023-12-29T10:09:33;2.27;;;1.20;;
23702;SDS011;12030;50.376;8.762;2023-12-29T10:12:02;2.17;;;0.70;;
23702;SDS011;12030;50.376;8.762;2023-12-29T10:14:36;4.03;;;1.00;;
23702;SDS011;12030;50.376;8.762;2023-12-29T10:17:09;2.23;;;1.00;;
23702;SDS011;12030;50.376;8.762;2023-12-29T10:19:49;2.90;;;1.00;;
23702;SDS011;12030;50.376;8.762;2023-12-29T10:25:07;1.67;;;0.77;;
23702;SDS011;12030;50.376;8.762;2023-12-29T10:27:34;2.13;;;1.23;;
23702;SDS011;12030;50.376;8.762;2023-12-29T10:30:00;3.30;;;0.73;;
23702;SDS011;12030;50.376;8.762;2023-12-29T10:32:25;2.60;;;0.90;;
23702;SDS011;12030;50.376;8.762;2023-12-29T10:35:07;3.17;;;1.30;;
23702;SDS011;12030;50.376;8.762;2023-12-29T10:37:34;3.60;;;1.40;;
23702;SDS011;12030;50.376;8.762;2023-12-29T10:40:00;1.63;;;0.90;;
23702;SDS011;12030;50.376;8.762;2023-12-29T10:42:26;1.77;;;0.90;;
23702;SDS011;12030;50.376;8.762;2023-12-29T10:45:04;1.67;;;0.90;;
23702;SDS011;12030;50.376;8.762;2023-12-29T10:47:33;3.53;;;0.90;;
23702;SDS011;12030;50.376;8.762;2023-12-29T10:50:01;2.17;;;0.80;;
23702;SDS011;12030;50.376;8.762;2023-12-29T10:52:28;2.20;;;0.70;;
23702;SDS011;12030;50.376;8.762;2023-12-29T10:55:04;1.80;;;0.90;;
23702;SDS011;12030;50.376;8.762;2023-12-29T10:57:34;1.97;;;0.80;;
23702;SDS011;12030;50.376;8.762;2023-12-29T11:00:01;2.40;;;1.07;;
23702;SDS011;12030;50.376;8.762;2023-12-29T11:02:28;2.53;;;0.90;;
23702;SDS011;12030;50.376;8.762;2023-12-29T11:05:01;1.40;;;0.70;;
23702;SDS011;12030;50.376;8.762;2023-12-29T11:07:34;3.13;;;1.10;;
23702;SDS011;12030;50.376;8.762;2023-12-29T11:10:04;3.23;;;0.80;;
23702;SDS011;12030;50.376;8.762;2023-12-29T11:12:37;1.20;;;0.70;;
23702;SDS011;12030;50.376;8.762;2023-12-29T11:15:04;3.53;;;0.80;;
23702;SDS011;12030;50.376;8.762;2023-12-29T11:17:31;2.50;;;1.00;;
23702;SDS011;12030;50.376;8.762;2023-12-29T11:19:59;1.47;;;0.63;;
23702;SDS011;12030;50.376;8.762;2023-12-29T11:22:27;2.10;;;0.60;;
23702;SDS011;12030;50.376;8.762;2023-12-29T11:24:54;1.90;;;0.80;;
23702;SDS011;12030;50.376;8.762;2023-12-29T11:27:20;1.67;;;0.80;;
23702;SDS011;12030;50.376;8.762;2023-12-29T11:29:47;2.07;;;0.77;;
23702;SDS011;12030;50.376;8.762;2023-12-29T11:32:16;2.83;;;0.67;;
23702;SDS011;12030;50.376;8.762;2023-12-29T11:34:48;3.43;;;1.07;;
23702;SDS011;12030;50.376;8.762;2023-12-29T11:40:04;1.53;;;0.67;;
23702;SDS011;12030;50.376;8.762;2023-12-29T11:42:41;2.40;;;0.60;;
23702;SDS011;12030;50.376;8.762;2023-12-29T11:47:51;3.77;;;0.70;;
23702;SDS011;12030;50.376;8.762;2023-12-29T11:50:27;3.27;;;0.80;;
23702;SDS011;12030;50.376;8.762;2023-12-29T11:52:57;3.00;;;0.80;;
23702;SDS011;12030;50.376;8.762;2023-12-29T11:55:27;1.37;;;0.73;;
23702;SDS011;12030;50.376;8.762;2023-12-29T11:58:00;2.50;;;0.80;;
23702;SDS011;12030;50.376;8.762;2023-12-29T12:00:40;1.57;;;0.70;;
23702;SDS011;12030;50.376;8.762;2023-12-29T12:03:24;1.07;;;0.70;;
23702;SDS011;12030;50.376;8.762;2023-12-29T12:05:51;1.83;;;0.90;;
23702;SDS011;12030;50.376;8.762;2023-12-29T12:10:52;1.97;;;0.90;;
23702;SDS011;12030;50.376;8.762;2023-12-29T12:16:46;2.00;;;0.77;;
23702;SDS011;12030;50.376;8.762;2023-12-29T12:19:07;1.57;;;0.50;;
23702;SDS011;12030;50.376;8.762;2023-12-29T12:21:33;1.27;;;0.60;;
23702;SDS011;12030;50.376;8.762;2023-12-29T12:23:59;2.67;;;0.67;;
23702;SDS011;12030;50.376;8.762;2023-12-29T12:26:28;4.33;;;1.60;;
23702;SDS011;12030;50.376;8.762;2023-12-29T12:28:55;1.20;;;0.70;;
23702;SDS011;12030;50.376;8.762;2023-12-29T12:31:21;2.53;;;0.87;;
23702;SDS011;12030;50.376;8.762;2023-12-29T12:33:54;2.40;;;0.80;;
23702;SDS011;12030;50.376;8.762;2023-12-29T12:36:20;1.70;;;0.57;;
23702;SDS011;12030;50.376;8.762;2023-12-29T12:38:52;2.27;;;0.77;;
23702;SDS011;12030;50.376;8.762;2023-12-29T12:41:19;2.70;;;0.87;;
23702;SDS011;12030;50.376;8.762;2023-12-29T12:43:48;1.17;;;0.70;;
23702;SDS011;12030;50.376;8.762;2023-12-29T12:46:22;3.50;;;0.70;;
23702;SDS011;12030;50.376;8.762;2023-12-29T12:48:51;1.07;;;0.63;;
23702;SDS011;12030;50.376;8.762;2023-12-29T12:51:19;2.33;;;0.70;;
23702;SDS011;12030;50.376;8.762;2023-12-29T12:53:45;3.07;;;0.70;;
23702;SDS011;12030;50.376;8.762;2023-12-29T12:56:12;1.07;;;0.60;;
23702;SDS011;12030;50.376;8.762;2023-12-29T12:58:38;2.40;;;0.50;;
23702;SDS011;12030;50.376;8.762;2023-12-29T13:01:05;2.13;;;0.47;;
23702;SDS011;12030;50.376;8.762;2023-12-29T13:03:31;1.53;;;0.47;;
23702;SDS011;12030;50.376;8.762;2023-12-29T13:05:57;2.77;;;0.70;;
23702;SDS011;12030;50.376;8.762;2023-12-29T13:08:24;1.97;;;0.60;;
23702;SDS011;12030;50.376;8.762;2023-12-29T13:10:50;1.73;;;0.60;;
23702;SDS011;12030;50.376;8.762;2023-12-29T13:13:16;1.73;;;0.60;;
23702;SDS011;12030;50.376;8.762;2023-12-29T13:15:50;2.73;;;0.70;;
23702;SDS011;12030;50.376;8.762;2023-12-29T13:18:28;1.50;;;0.60;;
23702;SDS011;12030;50.376;8.762;2023-12-29T13:20:54;1.30;;;0.60;;
23702;SDS011;12030;50.376;8.762;2023-12-29T13:23:20;1.13;;;0.50;;
23702;SDS011;12030;50.376;8.762;2023-12-29T13:25:49;1.80;;;0.60;;
23702;SDS011;12030;50.376;8.762;2023-12-29T13:28:21;1.47;;;0.60;;
23702;SDS011;12030;50.376;8.762;2023-12-29T13:30:47;2.37;;;0.70;;
23702;SDS011;12030;50.376;8.762;2023-12-29T13:33:23;1.80;;;0.60;;
23702;SDS011;12030;50.376;8.762;2023-12-29T13:35:54;2.03;;;0.57;;
23702;SDS011;12030;50.376;8.762;2023-12-29T13:38:26;2.23;;;0.70;;
23702;SDS011;12030;50.376;8.762;2023-12-29T13:43:32;1.87;;;0.70;;
23702;SDS011;12030;50.376;8.762;2023-12-29T13:46:00;0.93;;;0.60;;
23702;SDS011;12030;50.376;8.762;2023-12-29T13:48:28;1.70;;;0.60;;
23702;SDS011;12030;50.376;8.762;2023-12-29T13:50:54;1.53;;;0.63;;
23702;SDS011;12030;50.376;8.762;2023-12-29T13:53:20;1.30;;;0.60;;
23702;SDS011;12030;50.376;8.762;2023-12-29T13:55:47;1.07;;;0.40;;
23702;SDS011;12030;50.376;8.762;2023-12-29T13:58:13;1.90;;;0.70;;
23702;SDS011;12030;50.376;8.762;2023-12-29T14:00:40;1.70;;;0.60;;
23702;SDS011;12030;50.376;8.762;2023-12-29T14:03:06;3.10;;;0.53;;
23702;SDS011;12030;50.376;8.762;2023-12-29T14:05:43;1.70;;;0.63;;
23702;SDS011;12030;50.376;8.762;2023-12-29T14:10:51;1.80;;;0.53;;
23702;SDS011;12030;50.376;8.762;2023-12-29T14:13:18;1.27;;;0.60;;
23702;SDS011;12030;50.376;8.762;2023-12-29T14:15:44;1.07;;;0.40;;
23702;SDS011;12030;50.376;8.762;2023-12-29T14:26:27;1.20;;;0.50;;
23702;SDS011;12030;50.376;8.762;2023-12-29T14:29:00;1.57;;;0.63;;
23702;SDS011;12030;50.376;8.762;2023-12-29T14:31:31;0.80;;;0.40;;
23702;SDS011;12030;50.376;8.762;2023-12-29T14:34:09;1.80;;;0.60;;
23702;SDS011;12030;50.376;8.762;2023-12-29T14:36:35;0.40;;;0.30;;
23702;SDS011;12030;50.376;8.762;2023-12-29T14:39:02;1.53;;;0.50;;
23702;SDS011;12030;50.376;8.762;2023-12-29T14:41:28;0.60;;;0.40;;
23702;SDS011;12030;50.376;8.762;2023-12-29T14:43:54;1.33;;;0.47;;
23702;SDS011;12030;50.376;8.762;2023-12-29T14:46:20;1.33;;;0.50;;
23702;SDS011;12030;50.376;8.762;2023-12-29T14:48:46;0.97;;;0.60;;
23702;SDS011;12030;50.376;8.762;2023-12-29T14:51:12;0.90;;;0.60;;
23702;SDS011;12030;50.376;8.762;2023-12-29T14:53:38;0.57;;;0.50;;
23702;SDS011;12030;50.376;8.762;2023-12-29T14:56:04;0.73;;;0.50;;
23702;SDS011;12030;50.376;8.762;2023-12-29T14:58:30;0.77;;;0.60;;
23702;SDS011;12030;50.376;8.762;2023-12-29T15:00:57;0.97;;;0.50;;
23702;SDS011;12030;50.376;8.762;2023-12-29T15:03:23;0.87;;;0.50;;
23702;SDS011;12030;50.376;8.762;2023-12-29T15:05:48;1.10;;;0.43;;
23702;SDS011;12030;50.376;8.762;2023-12-29T15:08:14;0.73;;;0.40;;
23702;SDS011;12030;50.376;8.762;2023-12-29T15:10:41;1.47;;;0.47;;
23702;SDS011;12030;50.376;8.762;2023-12-29T15:13:06;2.00;;;0.30;;